createdAt,value
2022-09-26T00:01:31.621Z,100.00
2022-09-26T00:04:01.421Z,100.00
2022-09-26T00:06:28.417Z,100.00
2022-09-26T00:08:56.049Z,100.00
2022-09-26T00:11:31.944Z,98.35
2022-09-26T00:14:01.093Z,99.88
2022-09-26T00:16:27.823Z,100.00
2022-09-26T00:18:55.871Z,100.00
2022-09-26T00:21:23.633Z,99.54
2022-09-26T00:23:50.470Z,97.89
2022-09-26T00:26:19.315Z,99.43
2022-09-26T00:28:46.152Z,99.20
2022-09-26T00:31:19.171Z,98.49
2022-09-26T00:33:47.022Z,98.26
2022-09-26T00:36:13.475Z,98.83
2022-09-26T00:38:39.976Z,99.46
2022-09-26T00:41:07.428Z,100.00
2022-09-26T00:43:40.238Z,100.00
2022-09-26T00:46:20.964Z,100.00
2022-09-26T00:49:14.016Z,100.00
2022-09-26T00:51:43.004Z,100.00
2022-09-26T00:54:14.564Z,100.00
2022-09-26T00:56:43.247Z,100.00
2022-09-26T00:59:22.164Z,100.00
2022-09-26T01:01:51.227Z,100.00
2022-09-26T01:04:18.075Z,100.00
2022-09-26T01:06:45.641Z,100.00
2022-09-26T01:09:14.927Z,100.00
2022-09-26T01:11:43.437Z,100.00
2022-09-26T01:14:12.006Z,100.00
2022-09-26T01:16:41.854Z,100.00
2022-09-26T01:19:24.616Z,100.00
2022-09-26T01:22:18.914Z,100.00
2022-09-26T01:25:00.745Z,100.00
2022-09-26T01:27:47.351Z,100.00
2022-09-26T01:30:21.548Z,100.00
2022-09-26T01:33:16.469Z,100.00
2022-09-26T01:35:51.990Z,100.00
2022-09-26T01:38:44.614Z,100.00
2022-09-26T01:41:20.225Z,100.00
2022-09-26T01:44:17.498Z,100.00
2022-09-26T01:46:56.750Z,100.00
2022-09-26T01:49:33.250Z,100.00
2022-09-26T01:52:02.627Z,100.00
2022-09-26T01:54:37.534Z,100.00
2022-09-26T01:57:10.718Z,100.00
2022-09-26T01:59:47.686Z,100.00
2022-09-26T02:02:27.401Z,100.00
2022-09-26T02:04:59.927Z,100.00
2022-09-26T02:07:40.231Z,100.00
2022-09-26T02:10:16.565Z,100.00
2022-09-26T02:12:47.712Z,100.00
2022-09-26T02:15:17.800Z,100.00
2022-09-26T02:17:49.158Z,100.00
2022-09-26T02:20:24.025Z,100.00
2022-09-26T02:22:50.738Z,100.00
2022-09-26T02:25:17.318Z,99.86
2022-09-26T02:27:44.092Z,99.42
2022-09-26T02:30:11.122Z,100.00
2022-09-26T02:32:38.333Z,99.95
2022-09-26T02:35:34.675Z,99.69
2022-09-26T02:38:02.078Z,98.45
2022-09-26T02:40:42.258Z,98.26
2022-09-26T02:43:26.106Z,99.11
2022-09-26T02:46:07.683Z,99.07
2022-09-26T02:49:13.201Z,99.20
2022-09-26T02:51:59.839Z,99.68
2022-09-26T02:54:46.567Z,99.51
2022-09-26T02:57:34.112Z,99.00
2022-09-26T03:00:17.043Z,99.49
2022-09-26T03:02:52.455Z,100.00
2022-09-26T03:05:25.133Z,100.00
2022-09-26T03:07:59.533Z,100.00
2022-09-26T03:10:27.475Z,100.00
2022-09-26T03:13:00.299Z,100.00
2022-09-26T03:15:28.562Z,100.00
2022-09-26T03:17:56.730Z,100.00
2022-09-26T03:20:23.395Z,100.00
2022-09-26T03:22:50.837Z,100.00
2022-09-26T03:25:21.277Z,100.00
2022-09-26T03:27:48.931Z,100.00
2022-09-26T03:30:17.489Z,100.00
2022-09-26T03:32:44.226Z,100.00
2022-09-26T03:35:10.825Z,100.00
2022-09-26T03:37:37.412Z,100.00
2022-09-26T03:40:06.644Z,100.00
2022-09-26T03:42:33.975Z,100.00
2022-09-26T03:45:01.415Z,100.00
2022-09-26T03:47:28.033Z,100.00
2022-09-26T03:49:54.973Z,99.98
2022-09-26T03:52:21.802Z,99.40
2022-09-26T03:54:48.530Z,98.75
2022-09-26T03:57:16.253Z,98.78
2022-09-26T03:59:42.874Z,98.94
2022-09-26T04:02:10.027Z,99.82
2022-09-26T04:04:36.580Z,99.56
2022-09-26T04:07:03.188Z,99.02
2022-09-26T04:09:29.941Z,98.98
2022-09-26T04:11:56.451Z,99.62
2022-09-26T04:14:23.115Z,98.65
2022-09-26T04:16:49.577Z,97.84
2022-09-26T04:19:16.133Z,98.15
2022-09-26T04:21:42.688Z,97.79
2022-09-26T04:24:14.754Z,98.54
2022-09-26T04:26:42.948Z,98.16
2022-09-26T04:29:10.343Z,97.82
2022-09-26T04:31:37.748Z,97.37
2022-09-26T04:34:05.134Z,97.14
2022-09-26T04:36:32.591Z,97.43
2022-09-26T04:39:00.556Z,95.81
2022-09-26T04:41:28.612Z,96.03
2022-09-26T04:43:55.689Z,94.72
2022-09-26T04:46:29.603Z,95.57
2022-09-26T04:48:59.547Z,93.89
2022-09-26T04:51:27.537Z,95.82
2022-09-26T04:53:54.050Z,97.22
2022-09-26T04:56:22.739Z,97.02
2022-09-26T04:58:49.605Z,96.68
2022-09-26T05:01:18.861Z,97.28
2022-09-26T05:03:45.399Z,97.57
2022-09-26T05:06:13.039Z,96.86
2022-09-26T05:08:41.097Z,96.96
2022-09-26T05:11:09.152Z,97.82
2022-09-26T05:13:37.774Z,97.63
2022-09-26T05:16:05.689Z,97.38
2022-09-26T05:18:33.662Z,97.71
2022-09-26T05:21:01.418Z,98.83
2022-09-26T05:23:46.706Z,98.96
2022-09-26T05:26:31.803Z,98.64
2022-09-26T05:29:08.401Z,97.69
2022-09-26T05:31:40.019Z,98.11
2022-09-26T05:34:08.643Z,97.47
2022-09-26T05:36:35.096Z,97.17
2022-09-26T05:39:02.298Z,96.83
2022-09-26T05:41:31.212Z,96.86
2022-09-26T05:43:58.056Z,97.04
2022-09-26T05:46:27.127Z,96.21
2022-09-26T05:48:55.466Z,96.45
2022-09-26T05:51:22.236Z,96.72
2022-09-26T05:53:49.611Z,96.82
2022-09-26T05:56:19.633Z,96.43
2022-09-26T05:58:46.772Z,95.73
2022-09-26T06:01:18.400Z,96.00
2022-09-26T06:03:46.906Z,95.52
2022-09-26T06:06:16.145Z,94.93
2022-09-26T06:08:43.720Z,94.51
2022-09-26T06:11:18.570Z,93.41
2022-09-26T06:13:45.991Z,93.81
2022-09-26T06:16:16.211Z,93.69
2022-09-26T06:18:42.659Z,93.79
2022-09-26T06:21:12.287Z,94.07
2022-09-26T06:23:39.216Z,92.89
2022-09-26T06:26:08.741Z,94.04
2022-09-26T06:28:36.236Z,94.24
2022-09-26T06:31:13.420Z,94.12
2022-09-26T06:33:39.896Z,92.96
2022-09-26T06:36:09.374Z,94.05
2022-09-26T06:38:36.792Z,93.69
2022-09-26T06:41:04.353Z,92.86
2022-09-26T06:43:31.381Z,92.99
2022-09-26T06:45:57.798Z,91.20
2022-09-26T06:48:25.400Z,92.18
2022-09-26T06:50:53.372Z,92.06
2022-09-26T06:53:20.277Z,91.63
2022-09-26T06:55:46.706Z,91.33
2022-09-26T06:58:13.319Z,90.81
2022-09-26T07:00:40.499Z,90.33
2022-09-26T07:03:08.206Z,91.33
2022-09-26T07:05:35.081Z,89.47
2022-09-26T07:08:02.461Z,90.92
2022-09-26T07:10:30.493Z,90.73
2022-09-26T07:13:06.228Z,86.96
2022-09-26T07:15:35.270Z,86.49
2022-09-26T07:18:04.396Z,81.87
2022-09-26T07:20:33.250Z,81.03
2022-09-26T07:23:04.734Z,78.91
2022-09-26T07:25:31.945Z,78.32
2022-09-26T07:27:59.309Z,77.62
2022-09-26T07:30:26.014Z,75.50
2022-09-26T07:32:52.422Z,74.59
2022-09-26T07:35:18.828Z,71.18
2022-09-26T07:37:45.287Z,70.40
2022-09-26T07:40:12.143Z,67.84
2022-09-26T07:42:38.864Z,69.04
2022-09-26T07:45:28.795Z,68.34
2022-09-26T07:48:11.098Z,68.79
2022-09-26T07:50:38.049Z,69.89
2022-09-26T07:53:04.611Z,69.60
2022-09-26T07:55:31.173Z,72.08
2022-09-26T07:57:57.923Z,70.58
2022-09-26T08:00:24.641Z,73.37
2022-09-26T08:02:52.712Z,73.63
2022-09-26T08:05:24.518Z,74.95
2022-09-26T08:07:51.103Z,74.67
2022-09-26T08:10:23.981Z,74.46
2022-09-26T08:12:50.651Z,74.42
2022-09-26T08:15:17.323Z,73.51
2022-09-26T08:17:44.191Z,73.75
2022-09-26T08:20:11.084Z,72.96
2022-09-26T08:22:37.615Z,73.09
2022-09-26T08:25:06.761Z,71.30
2022-09-26T08:27:34.433Z,71.12
2022-09-26T08:30:02.710Z,64.72
2022-09-26T08:32:32.147Z,61.21
2022-09-26T08:34:58.787Z,60.61
2022-09-26T08:37:28.848Z,59.21
2022-09-26T08:39:55.234Z,59.13
2022-09-26T08:42:48.906Z,56.20
2022-09-26T08:45:42.113Z,51.51
2022-09-26T08:48:42.467Z,51.98
2022-09-26T08:51:39.828Z,49.97
2022-09-26T08:54:20.182Z,47.81
2022-09-26T08:56:55.406Z,47.09
2022-09-26T08:59:31.789Z,45.99
2022-09-26T09:02:05.137Z,45.33
2022-09-26T09:04:38.325Z,40.83
2022-09-26T09:07:17.151Z,43.18
2022-09-26T09:09:43.700Z,42.14
2022-09-26T09:12:33.800Z,40.07
2022-09-26T09:15:33.328Z,40.70
2022-09-26T09:18:29.272Z,39.85
2022-09-26T09:20:55.665Z,42.12
2022-09-26T09:23:22.010Z,40.73
2022-09-26T09:29:10.488Z,38.36
2022-09-26T09:31:41.497Z,39.11
2022-09-26T09:34:31.208Z,43.03
2022-09-26T09:37:04.088Z,41.33
2022-09-26T09:39:35.246Z,42.60
2022-09-26T09:42:10.038Z,44.81
2022-09-26T09:44:48.721Z,46.68
2022-09-26T09:47:17.521Z,48.28
2022-09-26T09:49:47.254Z,51.08
2022-09-26T09:52:44.255Z,50.81
2022-09-26T09:55:25.451Z,44.58
2022-09-26T09:58:18.944Z,42.74
2022-09-26T10:01:00.895Z,40.90
2022-09-26T10:03:45.384Z,35.84
2022-09-26T10:06:44.758Z,31.84
2022-09-26T10:09:35.571Z,33.10
2022-09-26T10:11:56.499Z,31.91
2022-09-26T10:14:38.926Z,34.93
2022-09-26T10:17:11.857Z,36.44
2022-09-26T10:19:41.077Z,35.92
2022-09-26T10:22:32.514Z,38.85
2022-09-26T10:25:18.911Z,41.03
2022-09-26T10:27:53.583Z,42.27
2022-09-26T10:30:20.099Z,44.55
2022-09-26T10:32:56.424Z,44.27
2022-09-26T10:35:25.330Z,44.29
2022-09-26T10:38:03.038Z,44.66
2022-09-26T10:40:48.201Z,47.27
2022-09-26T10:43:34.091Z,48.24
2022-09-26T10:46:19.166Z,48.99
2022-09-26T10:48:49.605Z,49.22
2022-09-26T10:51:24.842Z,48.58
2022-09-26T10:53:58.691Z,49.58
2022-09-26T10:56:30.258Z,48.73
2022-09-26T10:59:10.122Z,49.90
2022-09-26T11:01:42.947Z,49.93
2022-09-26T11:04:37.579Z,48.66
2022-09-26T11:07:07.440Z,50.18
2022-09-26T11:09:35.445Z,49.52
2022-09-26T11:12:29.148Z,50.58
2022-09-26T11:14:58.874Z,49.61
2022-09-26T11:17:55.364Z,51.80
2022-09-26T11:20:44.232Z,50.53
2022-09-26T11:23:31.682Z,50.09
2022-09-26T11:26:21.370Z,48.39
2022-09-26T11:29:03.763Z,49.16
2022-09-26T11:31:36.248Z,48.82
2022-09-26T11:34:04.516Z,48.49
2022-09-26T11:36:35.933Z,47.85
2022-09-26T11:39:40.848Z,45.91
2022-09-26T11:42:38.827Z,47.20
2022-09-26T11:45:47.593Z,48.82
2022-09-26T11:48:20.450Z,48.84
2022-09-26T11:51:17.570Z,47.43
2022-09-26T11:53:47.235Z,48.02
2022-09-26T11:56:29.810Z,47.40
2022-09-26T11:59:27.897Z,45.79
2022-09-26T12:02:32.710Z,42.37
2022-09-26T12:05:22.427Z,40.93
2022-09-26T12:08:19.307Z,41.13
2022-09-26T12:11:00.726Z,39.33
2022-09-26T12:13:52.170Z,41.77
2022-09-26T12:16:24.669Z,42.13
2022-09-26T12:19:20.616Z,43.64
2022-09-26T12:22:30.876Z,43.98
2022-09-26T12:25:37.279Z,45.06
2022-09-26T12:28:17.210Z,44.98
2022-09-26T12:30:56.454Z,45.45
2022-09-26T12:33:30.467Z,45.72
2022-09-26T12:36:06.145Z,46.24
2022-09-26T12:38:56.719Z,44.58
2022-09-26T12:41:25.031Z,45.14
2022-09-26T12:44:10.889Z,45.64
2022-09-26T12:46:43.553Z,45.88
2022-09-26T12:49:47.791Z,44.52
2022-09-26T12:53:01.842Z,45.43
2022-09-26T12:55:43.847Z,45.31
2022-09-26T12:58:13.008Z,44.26
2022-09-26T13:00:53.894Z,44.52
2022-09-26T13:03:54.717Z,45.34
2022-09-26T13:07:14.775Z,45.25
2022-09-26T13:09:53.673Z,44.80
2022-09-26T13:13:11.650Z,44.84
2022-09-26T13:15:49.399Z,44.91
2022-09-26T13:18:25.968Z,44.97
2022-09-26T13:20:57.904Z,44.50
2022-09-26T13:23:52.514Z,45.09
2022-09-26T13:26:23.781Z,46.35
2022-09-26T13:29:23.413Z,44.81
2022-09-26T13:32:23.550Z,44.97
2022-09-26T13:35:05.767Z,45.29
2022-09-26T13:37:45.989Z,45.10
2022-09-26T13:40:24.518Z,46.25
2022-09-26T13:43:05.040Z,45.03
2022-09-26T13:45:34.105Z,44.90
2022-09-26T13:48:07.863Z,45.68
2022-09-26T13:50:55.969Z,47.06
2022-09-26T13:53:23.753Z,44.53
2022-09-26T13:56:30.190Z,44.75
2022-09-26T13:59:25.986Z,46.01
2022-09-26T14:02:15.931Z,47.21
2022-09-26T14:04:44.555Z,47.00
2022-09-26T14:07:29.299Z,46.59
2022-09-26T14:10:07.601Z,45.04
2022-09-26T14:13:10.629Z,46.76
2022-09-26T14:15:49.585Z,46.47
2022-09-26T14:18:25.002Z,46.66
2022-09-26T14:20:57.672Z,46.87
2022-09-26T14:23:38.602Z,48.55
2022-09-26T14:26:10.732Z,47.73
2022-09-26T14:28:38.798Z,46.87
2022-09-26T14:31:22.001Z,46.46
2022-09-26T14:33:50.506Z,47.19
2022-09-26T14:36:31.179Z,47.91
2022-09-26T14:38:57.884Z,47.86
2022-09-26T14:41:29.437Z,47.12
2022-09-26T14:44:03.034Z,46.52
2022-09-26T14:46:33.169Z,47.57
2022-09-26T14:49:05.281Z,47.08
2022-09-26T14:51:38.936Z,48.25
2022-09-26T14:54:18.865Z,46.53
2022-09-26T14:56:59.373Z,46.65
2022-09-26T14:59:34.963Z,47.57
2022-09-26T15:02:14.339Z,46.65
2022-09-26T15:04:47.213Z,47.99
2022-09-26T15:07:25.471Z,47.66
2022-09-26T15:09:58.669Z,47.10
2022-09-26T15:12:39.364Z,46.51
2022-09-26T15:15:07.190Z,46.54
2022-09-26T15:17:40.057Z,46.63
2022-09-26T15:20:15.986Z,46.67
2022-09-26T15:22:43.130Z,47.08
2022-09-26T15:25:13.571Z,47.34
2022-09-26T15:27:46.059Z,46.00
2022-09-26T15:30:24.177Z,47.43
2022-09-26T15:32:59.595Z,47.20
2022-09-26T15:35:27.266Z,48.42
2022-09-26T15:37:59.942Z,46.74
2022-09-26T15:40:29.100Z,47.57
2022-09-26T15:43:15.101Z,45.78
2022-09-26T15:45:47.877Z,46.33
2022-09-26T15:48:20.353Z,47.55
2022-09-26T15:50:51.662Z,46.40
2022-09-26T15:53:27.017Z,47.74
2022-09-26T15:56:00.129Z,46.43
2022-09-26T15:58:56.057Z,46.58
2022-09-26T16:01:28.150Z,48.04
2022-09-26T16:04:20.332Z,46.71
2022-09-26T16:06:59.759Z,46.37
2022-09-26T16:09:38.770Z,46.79
2022-09-26T16:12:05.377Z,44.92
2022-09-26T16:14:42.102Z,45.21
2022-09-26T16:17:32.341Z,45.36
2022-09-26T16:20:25.512Z,46.43
2022-09-26T16:22:53.147Z,46.17
2022-09-26T16:25:19.592Z,46.40
2022-09-26T16:28:00.658Z,48.36
2022-09-26T16:30:30.189Z,46.62
2022-09-26T16:33:27.899Z,48.60
2022-09-26T16:35:54.424Z,48.60
2022-09-26T16:38:33.797Z,47.65
2022-09-26T16:41:09.822Z,48.22
2022-09-26T16:43:37.807Z,47.48
2022-09-26T16:46:09.023Z,48.17
2022-09-26T16:48:52.142Z,49.15
2022-09-26T16:51:25.121Z,48.69
2022-09-26T16:53:54.016Z,48.66
2022-09-26T16:56:23.429Z,49.96
2022-09-26T16:58:51.902Z,49.41
2022-09-26T17:01:37.280Z,50.10
2022-09-26T17:04:04.877Z,50.98
2022-09-26T17:06:31.317Z,51.50
2022-09-26T17:09:07.482Z,51.44
2022-09-26T17:11:33.912Z,52.14
2022-09-26T17:14:00.471Z,50.10
2022-09-26T17:16:27.089Z,50.51
2022-09-26T17:18:56.934Z,51.13
2022-09-26T17:21:23.715Z,52.11
2022-09-26T17:23:50.252Z,52.48
2022-09-26T17:26:21.800Z,52.59
2022-09-26T17:28:48.993Z,52.94
2022-09-26T17:31:21.190Z,52.66
2022-09-26T17:33:52.346Z,52.31
2022-09-26T17:36:26.029Z,53.08
2022-09-26T17:38:53.421Z,51.54
2022-09-26T17:41:19.912Z,53.22
2022-09-26T17:43:46.376Z,52.11
2022-09-26T17:46:15.879Z,53.95
2022-09-26T17:48:43.773Z,53.55
2022-09-26T17:51:14.215Z,53.54
2022-09-26T17:53:50.543Z,53.25
2022-09-26T17:56:17.894Z,52.79
2022-09-26T17:58:45.489Z,56.88
2022-09-26T18:01:25.743Z,52.89
2022-09-26T18:03:56.437Z,53.46
2022-09-26T18:06:26.721Z,53.52
2022-09-26T18:08:55.082Z,53.94
2022-09-26T18:11:21.606Z,53.55
2022-09-26T18:13:54.346Z,55.12
2022-09-26T18:16:22.018Z,54.40
2022-09-26T18:18:48.614Z,55.55
2022-09-26T18:21:18.676Z,51.65
2022-09-26T18:23:50.729Z,52.97
2022-09-26T18:26:30.150Z,54.38
2022-09-26T18:28:58.511Z,53.77
2022-09-26T18:31:33.434Z,52.88
2022-09-26T18:34:00.038Z,52.92
2022-09-26T18:36:33.182Z,52.77
2022-09-26T18:39:00.095Z,54.26
2022-09-26T18:41:28.605Z,56.04
2022-09-26T18:43:57.707Z,55.28
2022-09-26T18:46:24.395Z,56.32
2022-09-26T18:49:01.981Z,57.55
2022-09-26T18:51:28.660Z,56.96
2022-09-26T18:53:55.105Z,57.50
2022-09-26T18:56:40.301Z,57.61
2022-09-26T18:59:09.581Z,60.04
2022-09-26T19:01:39.994Z,61.25
2022-09-26T19:04:33.507Z,63.62
2022-09-26T19:07:04.506Z,64.15
2022-09-26T19:09:33.790Z,65.11
2022-09-26T19:12:01.917Z,65.73
2022-09-26T19:14:30.207Z,66.78
2022-09-26T19:16:57.524Z,66.55
2022-09-26T19:19:25.178Z,67.51
2022-09-26T19:21:55.359Z,68.62
2022-09-26T19:24:37.748Z,69.39
2022-09-26T19:27:07.788Z,70.20
2022-09-26T19:29:36.671Z,70.21
2022-09-26T19:32:04.497Z,70.47
2022-09-26T19:34:32.909Z,70.82
2022-09-26T19:37:01.334Z,71.16
2022-09-26T19:39:27.935Z,71.24
2022-09-26T19:41:54.398Z,71.90
2022-09-26T19:44:20.893Z,71.51
2022-09-26T19:46:47.472Z,71.99
2022-09-26T19:49:18.367Z,71.89
2022-09-26T19:51:44.939Z,72.26
2022-09-26T19:54:16.750Z,72.76
2022-09-26T19:56:43.578Z,74.11
2022-09-26T19:59:11.960Z,74.96
2022-09-26T20:01:40.923Z,74.40
2022-09-26T20:04:16.609Z,75.58
2022-09-26T20:06:43.671Z,75.06
2022-09-26T20:09:19.283Z,75.32
2022-09-26T20:11:46.126Z,74.83
2022-09-26T20:14:25.068Z,75.62
2022-09-26T20:17:01.394Z,74.39
2022-09-26T20:19:40.061Z,75.06
2022-09-26T20:22:12.238Z,75.83
2022-09-26T20:24:39.721Z,76.42
2022-09-26T20:27:10.652Z,76.86
2022-09-26T20:29:55.550Z,76.33
2022-09-26T20:32:21.998Z,76.38
2022-09-26T20:34:48.689Z,74.90
2022-09-26T20:37:15.498Z,75.88
2022-09-26T20:39:42.681Z,75.68
2022-09-26T20:42:16.518Z,75.90
2022-09-26T20:44:44.779Z,75.21
2022-09-26T20:47:16.717Z,74.93
2022-09-26T20:49:50.662Z,75.79
2022-09-26T20:52:26.326Z,74.67
2022-09-26T20:54:54.028Z,75.13
2022-09-26T20:57:22.213Z,73.98
2022-09-26T20:59:49.521Z,74.77
2022-09-26T21:02:38.842Z,70.57
2022-09-26T21:05:18.000Z,73.87
2022-09-26T21:07:44.720Z,73.71
2022-09-26T21:10:25.342Z,71.35
2022-09-26T21:12:52.415Z,72.62
2022-09-26T21:15:20.113Z,75.02
2022-09-26T21:17:47.296Z,76.36
2022-09-26T21:20:20.824Z,77.60
2022-09-26T21:22:47.356Z,74.36
2022-09-26T21:25:16.590Z,76.72
2022-09-26T21:27:44.137Z,78.37
2022-09-26T21:30:17.821Z,79.05
2022-09-26T21:32:48.209Z,78.34
2022-09-26T21:35:17.201Z,79.71
2022-09-26T21:37:50.462Z,78.59
2022-09-26T21:40:17.306Z,79.21
2022-09-26T21:42:48.036Z,77.82
2022-09-26T21:45:15.347Z,74.81
2022-09-26T21:47:41.758Z,75.38
2022-09-26T21:50:08.837Z,77.03
2022-09-26T21:52:40.630Z,77.57
2022-09-26T21:55:20.330Z,77.12
2022-09-26T21:57:52.331Z,76.69
2022-09-26T22:00:18.875Z,73.46
2022-09-26T22:02:45.437Z,76.40
2022-09-26T22:05:12.480Z,75.97
2022-09-26T22:07:39.070Z,74.68
2022-09-26T22:10:06.729Z,74.86
2022-09-26T22:12:34.090Z,74.97
2022-09-26T22:15:01.054Z,75.84
2022-09-26T22:17:27.502Z,76.05
2022-09-26T22:19:54.234Z,74.02
2022-09-26T22:22:21.572Z,75.13
2022-09-26T22:24:48.070Z,76.65
2022-09-26T22:27:14.489Z,78.26
2022-09-26T22:29:40.947Z,79.36
2022-09-26T22:32:07.466Z,79.44
2022-09-26T22:34:33.911Z,77.77
2022-09-26T22:37:00.414Z,77.02
2022-09-26T22:39:26.840Z,80.38
2022-09-26T22:41:53.221Z,80.67
2022-09-26T22:44:20.000Z,81.03
2022-09-26T22:46:46.399Z,82.02
2022-09-26T22:49:12.946Z,82.15
2022-09-26T22:51:39.486Z,82.66
2022-09-26T22:54:05.926Z,80.56
2022-09-26T22:56:32.339Z,79.91
2022-09-26T22:58:58.831Z,79.17
2022-09-26T23:01:27.504Z,79.66
2022-09-26T23:03:54.471Z,80.63
2022-09-26T23:06:22.466Z,78.91
2022-09-26T23:08:49.285Z,78.97
2022-09-26T23:11:17.178Z,77.82
2022-09-26T23:13:45.078Z,79.38
2022-09-26T23:16:17.276Z,80.16
2022-09-26T23:18:44.462Z,80.48
2022-09-26T23:21:11.963Z,79.58
2022-09-26T23:23:38.836Z,79.38
2022-09-26T23:26:07.022Z,78.38
2022-09-26T23:28:34.154Z,77.59
2022-09-26T23:31:08.233Z,77.29
2022-09-26T23:33:34.765Z,75.72
2022-09-26T23:36:01.817Z,77.67
2022-09-26T23:38:28.949Z,74.62
2022-09-26T23:40:56.178Z,76.31
2022-09-26T23:43:22.908Z,75.48
2022-09-26T23:45:49.640Z,75.21
2022-09-26T23:48:16.228Z,76.93
2022-09-26T23:50:44.990Z,77.17
2022-09-26T23:53:12.199Z,76.17
2022-09-26T23:55:38.622Z,74.52
2022-09-26T23:58:05.755Z,75.19
